createdAt,value
2023-01-21T00:01:09.903Z,67.20
2023-01-21T00:03:37.641Z,67.90
2023-01-21T00:06:05.843Z,67.20
2023-01-21T00:08:33.026Z,67.20
2023-01-21T00:13:48.951Z,67.00
2023-01-21T00:16:16.070Z,66.90
2023-01-21T00:18:43.136Z,66.90
2023-01-21T00:21:10.534Z,66.80
2023-01-21T00:23:37.512Z,66.80
2023-01-21T00:26:06.426Z,66.80
2023-01-21T00:28:35.235Z,66.90
2023-01-21T00:31:05.472Z,66.80
2023-01-21T00:33:33.983Z,66.80
2023-01-21T00:36:02.332Z,66.80
2023-01-21T00:38:30.692Z,66.70
2023-01-21T00:41:06.233Z,66.70
2023-01-21T00:43:33.849Z,66.70
2023-01-21T00:46:01.002Z,66.60
2023-01-21T00:48:31.199Z,66.70
2023-01-21T00:51:00.854Z,66.70
2023-01-21T00:53:29.695Z,66.70
2023-01-21T00:56:07.900Z,66.80
2023-01-21T00:58:35.262Z,66.90
2023-01-21T01:01:12.189Z,66.80
2023-01-21T01:03:39.832Z,66.80
2023-01-21T01:06:10.240Z,66.80
2023-01-21T01:08:37.505Z,66.70
2023-01-21T01:11:04.818Z,66.50
2023-01-21T01:13:33.026Z,66.40
2023-01-21T01:16:00.391Z,66.40
2023-01-21T01:18:29.228Z,66.30
2023-01-21T01:20:56.685Z,66.40
2023-01-21T01:23:24.166Z,66.30
2023-01-21T01:26:05.678Z,66.40
2023-01-21T01:28:34.047Z,66.50
2023-01-21T01:31:03.631Z,66.30
2023-01-21T01:33:30.927Z,66.30
2023-01-21T01:36:03.048Z,66.30
2023-01-21T01:38:30.918Z,66.40
2023-01-21T01:40:58.149Z,66.40
2023-01-21T01:43:45.295Z,66.30
2023-01-21T01:46:12.341Z,66.50
2023-01-21T01:48:40.084Z,66.30
2023-01-21T01:51:08.031Z,66.50
2023-01-21T01:53:37.212Z,66.40
2023-01-21T01:56:04.750Z,66.50
2023-01-21T01:58:32.302Z,66.50
2023-01-21T02:01:00.309Z,66.40
2023-01-21T02:03:45.014Z,66.40
2023-01-21T02:06:13.947Z,66.30
2023-01-21T02:08:42.579Z,66.20
2023-01-21T02:11:14.346Z,66.20
2023-01-21T02:13:44.830Z,66.10
2023-01-21T02:16:20.816Z,66.10
2023-01-21T02:18:56.496Z,66.10
2023-01-21T02:21:54.529Z,65.90
2023-01-21T02:24:42.787Z,65.90
2023-01-21T02:27:30.018Z,65.80
2023-01-21T02:30:53.354Z,65.70
2023-01-21T02:33:31.647Z,65.60
2023-01-21T02:36:10.233Z,65.70
2023-01-21T02:38:46.754Z,65.60
2023-01-21T02:41:25.504Z,65.60
2023-01-21T02:44:08.001Z,65.60
2023-01-21T02:46:45.387Z,65.60
2023-01-21T02:49:15.610Z,66.40
2023-01-21T02:51:47.405Z,65.60
2023-01-21T02:54:16.557Z,65.60
2023-01-21T02:56:44.241Z,65.40
2023-01-21T02:59:11.920Z,65.40
2023-01-21T03:01:44.639Z,65.30
2023-01-21T03:04:14.530Z,65.40
2023-01-21T03:07:22.439Z,65.30
2023-01-21T03:09:49.760Z,65.30
2023-01-21T03:12:28.908Z,65.30
2023-01-21T03:15:19.065Z,65.30
2023-01-21T03:17:54.586Z,65.30
2023-01-21T03:20:34.319Z,65.30
2023-01-21T03:23:07.785Z,65.30
2023-01-21T03:25:36.731Z,65.30
2023-01-21T03:28:09.260Z,65.10
2023-01-21T03:30:40.351Z,65.10
2023-01-21T03:33:09.360Z,65.10
2023-01-21T03:35:42.248Z,65.10
2023-01-21T03:38:18.173Z,65.10
2023-01-21T03:41:19.622Z,65.10
2023-01-21T03:43:46.983Z,65.10
2023-01-21T03:46:32.863Z,65.00
2023-01-21T03:49:22.793Z,64.90
2023-01-21T03:51:53.828Z,64.90
2023-01-21T03:54:20.960Z,64.80
2023-01-21T03:56:47.889Z,64.80
2023-01-21T03:59:14.967Z,64.60
2023-01-21T04:01:41.914Z,64.60
2023-01-21T04:04:10.072Z,65.30
2023-01-21T04:06:37.427Z,64.70
2023-01-21T04:09:05.803Z,64.50
2023-01-21T04:11:33.944Z,64.60
2023-01-21T04:14:01.094Z,64.60
2023-01-21T04:16:29.119Z,64.50
2023-01-21T04:18:56.270Z,64.50
2023-01-21T04:21:23.455Z,64.60
2023-01-21T04:23:50.495Z,64.60
2023-01-21T04:26:17.567Z,64.60
2023-01-21T04:28:44.605Z,64.60
2023-01-21T04:31:11.553Z,64.50
2023-01-21T04:33:38.614Z,64.50
2023-01-21T04:36:05.945Z,64.60
2023-01-21T04:38:33.101Z,64.60
2023-01-21T04:41:00.237Z,64.60
2023-01-21T04:43:27.236Z,64.50
2023-01-21T04:45:54.244Z,64.60
2023-01-21T04:48:21.316Z,64.50
2023-01-21T04:50:48.338Z,64.50
2023-01-21T04:53:15.423Z,64.50
2023-01-21T04:55:42.376Z,64.50
2023-01-21T04:58:09.281Z,64.40
2023-01-21T05:00:36.318Z,64.40
2023-01-21T05:03:03.322Z,64.50
2023-01-21T05:05:31.135Z,64.50
2023-01-21T05:07:58.232Z,64.60
2023-01-21T05:10:25.379Z,64.50
2023-01-21T05:13:02.225Z,64.50
2023-01-21T05:15:29.320Z,64.30
2023-01-21T05:17:58.455Z,64.40
2023-01-21T05:20:25.896Z,64.50
2023-01-21T05:22:52.860Z,64.60
2023-01-21T05:25:19.987Z,64.50
2023-01-21T05:27:52.379Z,64.50
2023-01-21T05:30:19.402Z,64.60
2023-01-21T05:32:53.646Z,64.40
2023-01-21T05:35:24.244Z,64.60
2023-01-21T05:37:51.399Z,64.50
2023-01-21T05:40:19.479Z,64.40
2023-01-21T05:42:47.194Z,64.40
2023-01-21T05:45:14.855Z,64.40
2023-01-21T05:47:42.205Z,64.50
2023-01-21T05:50:11.069Z,64.40
2023-01-21T05:52:38.180Z,64.60
2023-01-21T05:55:05.966Z,64.60
2023-01-21T05:57:33.189Z,64.70
2023-01-21T06:00:00.283Z,64.60
2023-01-21T06:02:27.450Z,64.70
2023-01-21T06:04:54.410Z,64.60
2023-01-21T06:07:21.283Z,64.70
2023-01-21T06:09:48.254Z,65.50
2023-01-21T06:12:15.175Z,64.80
2023-01-21T06:14:42.076Z,64.80
2023-01-21T06:17:09.020Z,64.80
2023-01-21T06:19:35.939Z,64.80
2023-01-21T06:22:02.915Z,64.80
2023-01-21T06:24:29.866Z,64.70
2023-01-21T06:26:56.829Z,64.70
2023-01-21T06:29:23.808Z,64.70
2023-01-21T06:31:50.890Z,64.60
2023-01-21T06:34:18.019Z,64.60
2023-01-21T06:36:44.981Z,64.50
2023-01-21T06:39:12.092Z,64.50
2023-01-21T06:41:41.450Z,64.60
2023-01-21T06:44:08.648Z,64.60
2023-01-21T06:46:35.795Z,64.50
2023-01-21T06:49:02.816Z,64.60
2023-01-21T06:51:29.837Z,64.60
2023-01-21T06:53:56.793Z,64.50
2023-01-21T06:56:23.771Z,64.50
2023-01-21T06:58:50.707Z,64.40
2023-01-21T07:01:17.701Z,64.50
2023-01-21T07:03:44.595Z,64.40
2023-01-21T07:06:11.496Z,64.50
2023-01-21T07:08:38.410Z,64.50
2023-01-21T07:11:05.548Z,64.40
2023-01-21T07:13:32.483Z,64.30
2023-01-21T07:16:01.055Z,64.30
2023-01-21T07:18:28.241Z,64.40
2023-01-21T07:20:56.013Z,64.40
2023-01-21T07:23:22.985Z,64.30
2023-01-21T07:25:50.001Z,64.20
2023-01-21T07:28:17.241Z,64.20
2023-01-21T07:30:44.309Z,64.20
2023-01-21T07:33:11.678Z,64.20
2023-01-21T07:35:38.693Z,64.20
2023-01-21T07:38:05.662Z,64.10
2023-01-21T07:40:32.620Z,64.10
2023-01-21T07:42:59.576Z,63.90
2023-01-21T07:45:26.751Z,64.00
2023-01-21T07:47:53.708Z,64.00
2023-01-21T07:50:20.722Z,63.90
2023-01-21T07:52:47.628Z,64.00
2023-01-21T07:55:14.883Z,64.00
2023-01-21T07:57:42.013Z,64.00
2023-01-21T08:00:09.541Z,64.10
2023-01-21T08:02:36.502Z,64.00
2023-01-21T08:05:03.471Z,64.00
2023-01-21T08:07:30.461Z,64.00
2023-01-21T08:09:57.509Z,64.00
2023-01-21T08:12:27.060Z,63.90
2023-01-21T08:14:54.407Z,64.00
2023-01-21T08:17:21.428Z,64.10
2023-01-21T08:19:48.308Z,64.20
2023-01-21T08:22:15.197Z,64.20
2023-01-21T08:24:42.149Z,64.20
2023-01-21T08:27:09.096Z,64.20
2023-01-21T08:29:36.074Z,64.30
2023-01-21T08:32:03.065Z,64.30
2023-01-21T08:34:30.660Z,64.30
2023-01-21T08:36:57.559Z,64.50
2023-01-21T08:39:24.479Z,64.30
2023-01-21T08:41:51.632Z,64.50
2023-01-21T08:48:10.127Z,64.50
2023-01-21T08:50:37.194Z,64.50
2023-01-21T08:53:04.148Z,64.50
2023-01-21T08:55:31.114Z,64.50
2023-01-21T08:57:58.545Z,64.50
2023-01-21T09:00:25.838Z,64.70
2023-01-21T09:02:53.228Z,64.60
2023-01-21T09:05:20.674Z,64.70
2023-01-21T09:07:47.631Z,64.70
2023-01-21T09:10:37.838Z,64.60
2023-01-21T09:13:10.428Z,64.80
2023-01-21T09:15:42.195Z,64.80
2023-01-21T09:18:09.549Z,64.80
2023-01-21T09:20:37.071Z,64.70
2023-01-21T09:23:24.157Z,64.80
2023-01-21T09:25:55.664Z,64.80
2023-01-21T09:28:23.627Z,64.90
2023-01-21T09:30:55.530Z,64.90
2023-01-21T09:33:22.480Z,64.90
2023-01-21T09:35:57.165Z,64.90
2023-01-21T09:38:25.384Z,65.00
2023-01-21T09:40:53.726Z,65.00
2023-01-21T09:43:37.399Z,64.90
2023-01-21T09:46:07.540Z,65.00
2023-01-21T09:48:42.625Z,65.10
2023-01-21T09:51:25.397Z,65.30
2023-01-21T09:53:57.844Z,65.30
2023-01-21T09:56:24.794Z,65.40
2023-01-21T09:59:10.475Z,65.30
2023-01-21T10:01:40.433Z,65.30
2023-01-21T10:04:19.341Z,65.30
2023-01-21T10:06:49.139Z,65.30
2023-01-21T10:09:54.417Z,65.30
2023-01-21T10:13:04.377Z,65.30
2023-01-21T10:15:46.240Z,65.30
2023-01-21T10:18:27.101Z,65.30
2023-01-21T10:21:10.766Z,65.40
2023-01-21T10:23:49.786Z,65.40
2023-01-21T10:26:16.893Z,65.40
2023-01-21T10:28:55.605Z,65.40
2023-01-21T10:31:26.947Z,65.50
2023-01-21T10:33:54.813Z,65.40
2023-01-21T10:36:40.633Z,65.50
2023-01-21T10:39:36.759Z,65.60
2023-01-21T10:42:12.975Z,65.60
2023-01-21T10:44:51.021Z,65.60
2023-01-21T10:47:18.089Z,65.60
2023-01-21T10:50:11.053Z,65.50
2023-01-21T10:52:50.764Z,65.50
2023-01-21T10:55:36.458Z,65.60
2023-01-21T10:58:25.626Z,65.60
2023-01-21T11:00:53.936Z,65.50
2023-01-21T11:03:42.376Z,65.50
2023-01-21T11:06:12.586Z,65.70
2023-01-21T11:08:43.553Z,65.60
2023-01-21T11:11:11.468Z,65.60
2023-01-21T11:13:41.281Z,65.60
2023-01-21T11:16:08.898Z,65.60
2023-01-21T11:18:39.762Z,65.50
2023-01-21T11:21:21.109Z,65.50
2023-01-21T11:24:02.257Z,65.50
2023-01-21T11:26:29.153Z,65.50
2023-01-21T11:29:12.667Z,65.60
2023-01-21T11:31:41.218Z,65.70
2023-01-21T11:34:14.789Z,65.80
2023-01-21T11:36:55.775Z,65.80
2023-01-21T11:39:28.518Z,65.80
2023-01-21T11:41:57.974Z,65.90
2023-01-21T11:44:25.372Z,66.00
2023-01-21T11:46:53.010Z,65.80
2023-01-21T11:49:19.897Z,65.80
2023-01-21T11:51:47.594Z,65.80
2023-01-21T11:54:23.124Z,65.70
2023-01-21T11:56:56.948Z,65.80
2023-01-21T11:59:37.388Z,65.90
2023-01-21T12:02:12.648Z,65.70
2023-01-21T12:04:51.792Z,65.60
2023-01-21T12:07:26.844Z,65.50
2023-01-21T12:10:09.890Z,65.70
2023-01-21T12:12:59.793Z,65.90
2023-01-21T12:15:50.826Z,65.70
2023-01-21T12:18:30.466Z,65.60
2023-01-21T12:21:10.852Z,65.60
2023-01-21T12:24:02.066Z,65.60
2023-01-21T12:26:41.473Z,65.60
2023-01-21T12:29:29.402Z,65.60
2023-01-21T12:32:05.134Z,65.60
2023-01-21T12:34:55.810Z,65.60
2023-01-21T12:37:32.938Z,65.30
2023-01-21T12:40:09.457Z,65.40
2023-01-21T12:42:41.178Z,65.40
2023-01-21T12:45:14.989Z,65.40
2023-01-21T12:47:48.713Z,66.10
2023-01-21T12:50:39.650Z,65.30
2023-01-21T12:53:09.758Z,65.30
2023-01-21T12:56:12.290Z,65.30
2023-01-21T12:58:50.751Z,65.60
2023-01-21T13:01:48.520Z,66.20
2023-01-21T13:04:33.443Z,65.50
2023-01-21T13:07:17.108Z,65.60
2023-01-21T13:09:47.055Z,65.60
2023-01-21T13:12:23.602Z,65.60
2023-01-21T13:15:10.874Z,65.70
2023-01-21T13:17:43.200Z,65.70
2023-01-21T13:20:19.537Z,65.90
2023-01-21T13:23:33.005Z,65.80
2023-01-21T13:26:12.488Z,65.60
2023-01-21T13:29:08.613Z,65.60
2023-01-21T13:32:11.684Z,65.50
2023-01-21T13:34:57.640Z,65.50
2023-01-21T13:37:33.360Z,65.60
2023-01-21T13:40:28.153Z,65.50
2023-01-21T13:42:57.798Z,65.60
2023-01-21T13:45:39.509Z,65.90
2023-01-21T13:48:30.485Z,65.70
2023-01-21T13:51:12.804Z,65.80
2023-01-21T13:53:39.725Z,65.80
2023-01-21T13:56:06.623Z,65.70
2023-01-21T13:58:47.632Z,65.60
2023-01-21T14:01:47.320Z,65.60
2023-01-21T14:04:28.213Z,65.50
2023-01-21T14:07:09.036Z,65.50
2023-01-21T14:09:46.026Z,65.30
2023-01-21T14:12:40.557Z,65.30
2023-01-21T14:15:25.792Z,65.30
2023-01-21T14:17:55.488Z,65.30
2023-01-21T14:20:44.179Z,65.30
2023-01-21T14:23:28.605Z,65.10
2023-01-21T14:26:13.965Z,65.10
2023-01-21T14:28:55.123Z,64.90
2023-01-21T14:31:27.172Z,65.00
2023-01-21T14:34:00.717Z,65.00
2023-01-21T14:40:26.870Z,65.00
2023-01-21T14:42:55.081Z,65.00
2023-01-21T14:45:25.840Z,65.00
2023-01-21T14:47:53.891Z,65.10
2023-01-21T14:50:42.657Z,65.10
2023-01-21T14:53:18.854Z,65.20
2023-01-21T14:55:45.992Z,65.20
2023-01-21T14:58:31.427Z,65.10
2023-01-21T15:00:58.510Z,65.10
2023-01-21T15:03:30.259Z,65.10
2023-01-21T15:06:09.894Z,65.10
2023-01-21T15:08:47.706Z,65.00
2023-01-21T15:11:21.809Z,65.00
2023-01-21T15:14:26.183Z,65.10
2023-01-21T15:16:53.524Z,65.00
2023-01-21T15:19:20.518Z,65.00
2023-01-21T15:21:59.880Z,65.00
2023-01-21T15:24:39.958Z,64.90
2023-01-21T15:27:19.179Z,65.00
2023-01-21T15:29:55.231Z,64.90
2023-01-21T15:32:53.819Z,64.90
2023-01-21T15:35:37.171Z,65.00
2023-01-21T15:38:13.132Z,65.00
2023-01-21T15:40:54.401Z,64.90
2023-01-21T15:43:40.735Z,65.00
2023-01-21T15:46:10.667Z,64.90
2023-01-21T15:49:05.697Z,65.00
2023-01-21T15:51:51.591Z,65.00
2023-01-21T15:54:25.409Z,64.80
2023-01-21T15:57:24.503Z,64.90
2023-01-21T16:00:17.705Z,65.00
2023-01-21T16:03:12.556Z,65.00
2023-01-21T16:05:42.634Z,65.10
2023-01-21T16:08:23.126Z,65.10
2023-01-21T16:11:19.278Z,65.10
2023-01-21T16:14:13.949Z,65.20
2023-01-21T16:17:00.608Z,65.20
2023-01-21T16:19:39.190Z,65.30
2023-01-21T16:22:10.147Z,65.20
2023-01-21T16:24:47.608Z,65.30
2023-01-21T16:27:24.458Z,65.40
2023-01-21T16:30:12.032Z,65.60
2023-01-21T16:32:39.408Z,65.70
2023-01-21T16:35:06.949Z,65.50
2023-01-21T16:37:34.301Z,65.60
2023-01-21T16:40:29.885Z,65.60
2023-01-21T16:43:29.037Z,65.70
2023-01-21T16:46:01.817Z,65.60
2023-01-21T16:48:31.613Z,65.60
2023-01-21T16:50:59.968Z,65.60
2023-01-21T16:53:27.777Z,65.50
2023-01-21T16:55:57.313Z,65.40
2023-01-21T16:58:31.472Z,65.50
2023-01-21T17:01:12.125Z,65.60
2023-01-21T17:03:39.494Z,65.60
2023-01-21T17:06:12.423Z,65.60
2023-01-21T17:08:40.547Z,65.60
2023-01-21T17:11:10.571Z,65.50
2023-01-21T17:13:43.248Z,66.20
2023-01-21T17:16:31.852Z,65.50
2023-01-21T17:19:09.380Z,65.40
2023-01-21T17:21:47.186Z,65.50
2023-01-21T17:24:25.463Z,65.50
2023-01-21T17:27:02.795Z,65.40
2023-01-21T17:29:31.994Z,65.50
2023-01-21T17:32:04.148Z,65.40
2023-01-21T17:34:36.534Z,65.40
2023-01-21T17:37:23.948Z,65.50
2023-01-21T17:39:54.814Z,65.50
2023-01-21T17:42:25.445Z,65.60
2023-01-21T17:44:55.527Z,65.60
2023-01-21T17:47:26.658Z,65.60
2023-01-21T17:50:00.423Z,65.60
2023-01-21T17:52:28.571Z,65.70
2023-01-21T17:55:37.994Z,65.60
2023-01-21T17:58:31.551Z,65.60
2023-01-21T18:01:01.917Z,65.60
2023-01-21T18:03:29.204Z,65.60
2023-01-21T18:05:56.959Z,65.50
2023-01-21T18:08:24.708Z,65.50
2023-01-21T18:10:51.707Z,65.60
2023-01-21T18:13:20.995Z,65.60
2023-01-21T18:15:54.363Z,65.70
2023-01-21T18:18:27.038Z,65.70
2023-01-21T18:20:54.286Z,65.70
2023-01-21T18:23:21.416Z,65.70
2023-01-21T18:25:53.771Z,65.70
2023-01-21T18:28:26.263Z,65.90
2023-01-21T18:30:57.725Z,65.80
2023-01-21T18:33:25.192Z,66.10
2023-01-21T18:35:53.030Z,66.00
2023-01-21T18:38:27.340Z,66.10
2023-01-21T18:40:55.783Z,66.10
2023-01-21T18:43:23.953Z,66.10
2023-01-21T18:45:53.276Z,66.00
2023-01-21T18:48:27.650Z,65.90
2023-01-21T18:50:54.721Z,66.10
2023-01-21T18:53:21.922Z,65.90
2023-01-21T18:55:51.029Z,66.10
2023-01-21T18:58:18.139Z,66.10
2023-01-21T19:00:45.170Z,66.00
2023-01-21T19:03:14.360Z,66.00
2023-01-21T19:05:44.134Z,66.00
2023-01-21T19:08:15.177Z,66.00
2023-01-21T19:10:42.498Z,66.00
2023-01-21T19:13:10.555Z,66.10
2023-01-21T19:15:38.256Z,66.00
2023-01-21T19:18:13.106Z,66.00
2023-01-21T19:20:41.791Z,66.20
2023-01-21T19:23:15.761Z,66.10
2023-01-21T19:25:48.786Z,66.10
2023-01-21T19:28:16.016Z,66.00
2023-01-21T19:30:45.351Z,66.10
2023-01-21T19:33:12.715Z,66.00
2023-01-21T19:35:43.838Z,66.00
2023-01-21T19:38:19.637Z,66.10
2023-01-21T19:40:47.203Z,66.20
2023-01-21T19:43:15.910Z,66.00
2023-01-21T19:45:43.778Z,66.20
2023-01-21T19:48:14.220Z,66.00
2023-01-21T19:50:42.099Z,66.00
2023-01-21T19:53:17.422Z,66.00
2023-01-21T19:55:46.539Z,66.00
2023-01-21T19:58:22.817Z,65.90
2023-01-21T20:00:53.703Z,66.00
2023-01-21T20:03:23.735Z,65.90
2023-01-21T20:05:59.548Z,65.90
2023-01-21T20:08:28.775Z,65.90
2023-01-21T20:10:56.358Z,65.90
2023-01-21T20:13:24.001Z,65.90
2023-01-21T20:15:52.572Z,65.70
2023-01-21T20:18:25.138Z,65.80
2023-01-21T20:20:53.347Z,65.90
2023-01-21T20:23:22.247Z,65.80
2023-01-21T20:25:53.595Z,65.90
2023-01-21T20:28:39.905Z,65.80
2023-01-21T20:31:08.226Z,65.80
2023-01-21T20:33:36.222Z,65.70
2023-01-21T20:36:06.329Z,65.70
2023-01-21T20:38:35.973Z,65.80
2023-01-21T20:41:04.867Z,65.70
2023-01-21T20:43:32.339Z,65.70
2023-01-21T20:46:03.221Z,65.80
2023-01-21T20:48:42.821Z,66.00
2023-01-21T20:51:10.343Z,66.00
2023-01-21T20:53:37.930Z,66.00
2023-01-21T20:56:21.475Z,66.10
2023-01-21T20:58:49.081Z,66.20
2023-01-21T21:01:18.149Z,66.80
2023-01-21T21:03:45.606Z,66.00
2023-01-21T21:06:15.127Z,66.00
2023-01-21T21:08:42.669Z,65.90
2023-01-21T21:11:10.474Z,65.80
2023-01-21T21:13:37.677Z,65.90
2023-01-21T21:16:19.589Z,65.80
2023-01-21T21:18:47.012Z,65.90
2023-01-21T21:21:15.262Z,65.80
2023-01-21T21:23:46.554Z,65.90
2023-01-21T21:26:19.948Z,65.90
2023-01-21T21:28:47.453Z,65.90
2023-01-21T21:31:16.200Z,65.90
2023-01-21T21:33:44.283Z,65.90
2023-01-21T21:36:16.182Z,65.90
2023-01-21T21:38:44.038Z,66.00
2023-01-21T21:41:40.606Z,66.00
2023-01-21T21:44:09.170Z,66.00
2023-01-21T21:46:56.009Z,66.10
2023-01-21T21:49:23.483Z,66.10
2023-01-21T21:51:50.544Z,66.00
2023-01-21T21:54:18.746Z,66.00
2023-01-21T21:56:46.334Z,66.00
2023-01-21T21:59:14.136Z,66.20
2023-01-21T22:01:43.310Z,66.10
2023-01-21T22:04:11.250Z,66.10
2023-01-21T22:06:38.723Z,66.10
2023-01-21T22:09:06.739Z,65.90
2023-01-21T22:11:34.034Z,66.10
2023-01-21T22:14:04.537Z,66.00
2023-01-21T22:16:32.880Z,66.00
2023-01-21T22:19:00.452Z,66.20
2023-01-21T22:21:31.909Z,66.10
2023-01-21T22:23:59.689Z,66.00
2023-01-21T22:26:28.214Z,66.00
2023-01-21T22:28:55.171Z,66.10
2023-01-21T22:31:24.164Z,66.00
2023-01-21T22:33:51.941Z,66.00
2023-01-21T22:36:24.124Z,66.00
2023-01-21T22:38:51.997Z,66.00
2023-01-21T22:41:21.084Z,65.90
2023-01-21T22:43:49.446Z,65.90
2023-01-21T22:46:22.252Z,65.90
2023-01-21T22:48:49.791Z,65.90
2023-01-21T22:51:19.380Z,65.90
2023-01-21T22:53:46.622Z,65.80
2023-01-21T22:56:16.058Z,65.70
2023-01-21T22:58:43.467Z,65.80
2023-01-21T23:01:24.699Z,65.60
2023-01-21T23:03:51.758Z,65.70
2023-01-21T23:06:19.575Z,65.50
2023-01-21T23:08:47.102Z,65.70
2023-01-21T23:11:16.054Z,65.60
2023-01-21T23:13:43.635Z,65.60
2023-01-21T23:16:14.363Z,65.60
2023-01-21T23:18:42.134Z,65.60
2023-01-21T23:21:21.021Z,65.50
2023-01-21T23:23:49.099Z,65.60
2023-01-21T23:26:16.424Z,65.60
2023-01-21T23:28:43.312Z,65.30
2023-01-21T23:31:16.665Z,65.30
2023-01-21T23:33:44.080Z,65.30
2023-01-21T23:36:13.598Z,65.40
2023-01-21T23:38:41.823Z,65.30
2023-01-21T23:41:11.301Z,65.10
2023-01-21T23:43:38.979Z,65.20
2023-01-21T23:46:07.826Z,65.20
2023-01-21T23:48:34.958Z,65.10
2023-01-21T23:51:07.150Z,65.00
2023-01-21T23:53:34.743Z,65.10
2023-01-21T23:56:13.006Z,65.00
2023-01-21T23:58:39.971Z,65.00
